Weather at Moonaree Airport

Public forecast

Using degrees Celsius for public forecast. Weather courtesy of forecast.io.

Closest aviation weather report (METAR) to Moonaree Airport

Closest report is Woomera Airfield, 69.0 nm (127.7 km) NE. Retrieved 2021/06/15 16:30 UTC (23 minutes ago):

YPWR 151630Z AUTO 33010KT 9999 // NCD 06/02 Q1012 RF000/0008

Closest aviation forecast (TAF) to Moonaree Airport

Closest forecast is Woomera Airfield, 69.0 nm (127.7 km) NE. Retrieved 2021/06/15 12:00 UTC (5 hours ago):

TAF YPWR 151112Z 1512/1606 31012KT CAVOK FM160000 30018KT 9999 SCT030 FM160300 26016G29KT 9999 SCT030